createdAt,value
2023-03-22T00:00:38.439Z,1008.88
2023-03-22T00:01:38.416Z,1008.89
2023-03-22T00:02:38.837Z,1008.88
2023-03-22T00:03:39.152Z,1008.91
2023-03-22T00:04:39.542Z,1008.80
2023-03-22T00:05:39.850Z,1008.76
2023-03-22T00:06:40.284Z,1008.80
2023-03-22T00:07:40.556Z,1008.77
2023-03-22T00:08:40.957Z,1008.75
2023-03-22T00:09:41.266Z,1008.74
2023-03-22T00:10:41.673Z,1008.74
2023-03-22T00:11:41.979Z,1008.73
2023-03-22T00:12:42.290Z,1008.74
2023-03-22T00:13:42.677Z,1008.73
2023-03-22T00:14:43.042Z,1008.64
2023-03-22T00:15:43.475Z,1008.63
2023-03-22T00:16:43.756Z,1008.65
2023-03-22T00:17:44.075Z,1008.63
2023-03-22T00:18:44.437Z,1008.62
2023-03-22T00:19:44.802Z,1008.58
2023-03-22T00:20:45.141Z,1008.60
2023-03-22T00:21:45.540Z,1008.63
2023-03-22T00:22:45.868Z,1008.60
2023-03-22T00:23:46.203Z,1008.64
2023-03-22T00:24:46.554Z,1008.58
2023-03-22T00:25:46.892Z,1008.63
2023-03-22T00:26:47.230Z,1008.63
2023-03-22T00:27:47.585Z,1008.63
2023-03-22T00:28:47.969Z,1008.54
2023-03-22T00:29:48.257Z,1008.56
2023-03-22T00:30:48.588Z,1008.62
2023-03-22T00:31:48.966Z,1008.55
2023-03-22T00:32:49.319Z,1008.46
2023-03-22T00:33:49.676Z,1008.44
2023-03-22T00:34:50.081Z,1008.42
2023-03-22T00:35:50.411Z,1008.46
2023-03-22T00:36:50.764Z,1008.47
2023-03-22T00:37:51.133Z,1008.36
2023-03-22T00:38:51.499Z,1008.39
2023-03-22T00:39:51.886Z,1008.39
2023-03-22T00:40:52.220Z,1008.44
2023-03-22T00:41:52.588Z,1008.42
2023-03-22T00:42:52.948Z,1008.41
2023-03-22T00:43:53.321Z,1008.35
2023-03-22T00:44:53.695Z,1008.43
2023-03-22T00:45:54.040Z,1008.43
2023-03-22T00:46:54.387Z,1008.44
2023-03-22T00:47:54.805Z,1008.48
2023-03-22T00:48:55.119Z,1008.41
2023-03-22T00:49:55.471Z,1008.41
2023-03-22T00:50:55.801Z,1008.38
2023-03-22T00:51:56.168Z,1008.39
2023-03-22T00:52:56.532Z,1008.37
2023-03-22T00:53:56.902Z,1008.37
2023-03-22T00:54:57.267Z,1008.37
2023-03-22T00:55:57.602Z,1008.39
2023-03-22T00:56:57.958Z,1008.35
2023-03-22T00:57:58.331Z,1008.35
2023-03-22T00:58:58.692Z,1008.35
2023-03-22T00:59:59.096Z,1008.29
2023-03-22T01:00:59.470Z,1008.35
2023-03-22T01:01:59.719Z,1008.27
2023-03-22T01:03:00.050Z,1008.28
2023-03-22T01:04:00.450Z,1008.21
2023-03-22T01:05:00.790Z,1008.15
2023-03-22T01:06:01.109Z,1008.17
2023-03-22T01:07:01.475Z,1008.12
2023-03-22T01:08:01.795Z,1008.20
2023-03-22T01:09:02.166Z,1008.19
2023-03-22T01:10:02.519Z,1008.16
2023-03-22T01:11:02.862Z,1008.21
2023-03-22T01:12:03.173Z,1008.16
2023-03-22T01:13:03.537Z,1008.16
2023-03-22T01:14:03.868Z,1008.11
2023-03-22T01:15:04.239Z,1008.13
2023-03-22T01:16:04.670Z,1008.08
2023-03-22T01:17:04.943Z,1008.13
2023-03-22T01:18:05.339Z,1008.07
2023-03-22T01:19:05.679Z,1008.05
2023-03-22T01:20:06.029Z,1008.12
2023-03-22T01:21:06.357Z,1008.08
2023-03-22T01:22:06.731Z,1008.03
2023-03-22T01:23:07.061Z,1008.01
2023-03-22T01:24:07.431Z,1007.99
2023-03-22T01:25:07.788Z,1008.02
2023-03-22T01:26:08.120Z,1007.96
2023-03-22T01:27:08.458Z,1007.92
2023-03-22T01:28:08.833Z,1007.96
2023-03-22T01:29:09.192Z,1007.95
2023-03-22T01:30:09.525Z,1007.95
2023-03-22T01:31:10.026Z,1007.94
2023-03-22T01:32:10.211Z,1007.96
2023-03-22T01:33:10.563Z,1007.98
2023-03-22T01:34:10.903Z,1007.92
2023-03-22T01:35:11.246Z,1007.94
2023-03-22T01:36:11.610Z,1007.87
2023-03-22T01:37:11.975Z,1007.83
2023-03-22T01:38:12.289Z,1007.79
2023-03-22T01:39:12.699Z,1007.80
2023-03-22T01:40:13.080Z,1007.78
2023-03-22T01:41:13.394Z,1007.76
2023-03-22T01:42:13.804Z,1007.78
2023-03-22T01:43:14.113Z,1007.72
2023-03-22T01:44:14.462Z,1007.71
2023-03-22T01:45:14.910Z,1007.67
2023-03-22T01:46:15.256Z,1007.69
2023-03-22T01:47:15.536Z,1007.69
2023-03-22T01:48:16.013Z,1007.70
2023-03-22T01:49:16.374Z,1007.69
2023-03-22T01:50:16.636Z,1007.67
2023-03-22T01:51:16.954Z,1007.66
2023-03-22T01:52:17.324Z,1007.63
2023-03-22T01:53:17.707Z,1007.63
2023-03-22T01:54:18.029Z,1007.62
2023-03-22T01:55:18.410Z,1007.55
2023-03-22T01:56:18.741Z,1007.56
2023-03-22T01:57:19.100Z,1007.54
2023-03-22T01:58:19.456Z,1007.57
2023-03-22T01:59:19.854Z,1007.55
2023-03-22T02:00:20.310Z,1007.53
2023-03-22T02:01:20.603Z,1007.53
2023-03-22T02:02:20.949Z,1007.52
2023-03-22T02:03:21.274Z,1007.53
2023-03-22T02:04:21.594Z,1007.54
2023-03-22T02:05:21.993Z,1007.45
2023-03-22T02:06:22.337Z,1007.50
2023-03-22T02:07:22.669Z,1007.38
2023-03-22T02:08:23.030Z,1007.38
2023-03-22T02:09:23.445Z,1007.36
2023-03-22T02:10:23.752Z,1007.35
2023-03-22T02:11:24.078Z,1007.31
2023-03-22T02:12:24.445Z,1007.30
2023-03-22T02:13:24.817Z,1007.30
2023-03-22T02:14:27.214Z,1007.31
2023-03-22T02:15:25.562Z,1007.34
2023-03-22T02:16:25.866Z,1007.26
2023-03-22T02:17:26.250Z,1007.30
2023-03-22T02:18:26.574Z,1007.29
2023-03-22T02:19:26.920Z,1007.26
2023-03-22T02:20:27.296Z,1007.24
2023-03-22T02:21:27.677Z,1007.20
2023-03-22T02:22:28.118Z,1007.19
2023-03-22T02:23:28.380Z,1007.16
2023-03-22T02:24:28.713Z,1007.22
2023-03-22T02:25:29.146Z,1007.15
2023-03-22T02:26:29.439Z,1007.13
2023-03-22T02:27:29.768Z,1007.14
2023-03-22T02:28:30.162Z,1007.13
2023-03-22T02:29:30.509Z,1007.19
2023-03-22T02:30:30.850Z,1007.15
2023-03-22T02:31:31.253Z,1007.14
2023-03-22T02:32:31.553Z,1007.10
2023-03-22T02:33:31.960Z,1007.08
2023-03-22T02:34:32.264Z,1007.14
2023-03-22T02:35:32.681Z,1007.15
2023-03-22T02:36:32.966Z,1007.10
2023-03-22T02:37:33.312Z,1007.08
2023-03-22T02:38:33.686Z,1007.10
2023-03-22T02:39:34.014Z,1007.06
2023-03-22T02:40:34.462Z,1007.07
2023-03-22T02:41:34.772Z,1007.10
2023-03-22T02:42:35.102Z,1007.07
2023-03-22T02:43:35.445Z,1007.12
2023-03-22T02:44:35.781Z,1007.08
2023-03-22T02:45:36.199Z,1007.08
2023-03-22T02:46:36.723Z,1006.99
2023-03-22T02:47:36.933Z,1007.05
2023-03-22T02:48:37.267Z,1007.03
2023-03-22T02:49:37.663Z,1007.05
2023-03-22T02:50:38.441Z,1007.07
2023-03-22T02:51:38.320Z,1007.04
2023-03-22T02:52:38.692Z,1007.03
2023-03-22T02:53:39.084Z,1007.01
2023-03-22T02:54:39.419Z,1007.02
2023-03-22T02:55:39.845Z,1006.97
2023-03-22T02:56:40.181Z,1006.90
2023-03-22T02:57:40.495Z,1006.97
2023-03-22T02:58:40.898Z,1006.98
2023-03-22T02:59:41.208Z,1006.92
2023-03-22T03:00:42.148Z,1006.97
2023-03-22T03:01:41.967Z,1006.92
2023-03-22T03:02:42.325Z,1006.97
2023-03-22T03:03:42.686Z,1006.96
2023-03-22T03:04:43.046Z,1006.90
2023-03-22T03:05:43.447Z,1006.95
2023-03-22T03:06:43.816Z,1006.97
2023-03-22T03:07:44.116Z,1006.97
2023-03-22T03:08:44.516Z,1006.99
2023-03-22T03:09:44.841Z,1006.94
2023-03-22T03:10:45.221Z,1006.94
2023-03-22T03:11:45.594Z,1007.00
2023-03-22T03:12:45.919Z,1006.98
2023-03-22T03:13:46.286Z,1006.96
2023-03-22T03:14:46.627Z,1006.99
2023-03-22T03:15:47.004Z,1007.02
2023-03-22T03:16:47.407Z,1006.97
2023-03-22T03:17:47.756Z,1006.93
2023-03-22T03:18:48.054Z,1006.96
2023-03-22T03:19:48.408Z,1006.94
2023-03-22T03:20:48.817Z,1006.92
2023-03-22T03:21:49.138Z,1006.96
2023-03-22T03:22:49.477Z,1006.91
2023-03-22T03:23:49.828Z,1006.97
2023-03-22T03:24:50.289Z,1006.97
2023-03-22T03:25:50.573Z,1006.94
2023-03-22T03:26:50.882Z,1006.95
2023-03-22T03:27:51.262Z,1006.96
2023-03-22T03:28:51.621Z,1006.96
2023-03-22T03:29:52.001Z,1006.97
2023-03-22T03:30:52.350Z,1006.94
2023-03-22T03:31:52.706Z,1006.91
2023-03-22T03:32:53.009Z,1006.95
2023-03-22T03:33:53.415Z,1006.92
2023-03-22T03:34:53.752Z,1006.98
2023-03-22T03:35:54.166Z,1006.94
2023-03-22T03:36:54.524Z,1006.89
2023-03-22T03:37:54.850Z,1006.87
2023-03-22T03:38:55.226Z,1006.93
2023-03-22T03:39:55.550Z,1006.86
2023-03-22T03:40:55.909Z,1006.90
2023-03-22T03:41:56.232Z,1006.94
2023-03-22T03:42:56.597Z,1006.94
2023-03-22T03:43:56.969Z,1006.95
2023-03-22T03:44:57.377Z,1006.96
2023-03-22T03:45:57.720Z,1006.87
2023-03-22T03:46:58.041Z,1006.88
2023-03-22T03:47:58.488Z,1006.85
2023-03-22T03:48:58.754Z,1006.89
2023-03-22T03:49:59.106Z,1006.86
2023-03-22T03:50:59.461Z,1006.87
2023-03-22T03:51:59.800Z,1006.82
2023-03-22T03:53:00.171Z,1006.86
2023-03-22T03:54:00.553Z,1006.91
2023-03-22T03:55:00.826Z,1006.92
2023-03-22T03:56:01.253Z,1006.86
2023-03-22T03:57:03.840Z,1006.86
2023-03-22T03:58:01.889Z,1006.81
2023-03-22T03:59:02.271Z,1006.80
2023-03-22T04:00:02.657Z,1006.86
2023-03-22T04:01:03.037Z,1006.88
2023-03-22T04:02:03.482Z,1006.82
2023-03-22T04:03:03.722Z,1006.81
2023-03-22T04:04:04.052Z,1006.81
2023-03-22T04:05:04.388Z,1006.84
2023-03-22T04:06:04.696Z,1006.81
2023-03-22T04:07:05.012Z,1006.80
2023-03-22T04:08:05.384Z,1006.81
2023-03-22T04:09:05.799Z,1006.86
2023-03-22T04:10:06.087Z,1006.87
2023-03-22T04:11:06.485Z,1006.89
2023-03-22T04:12:06.805Z,1006.83
2023-03-22T04:13:07.200Z,1006.86
2023-03-22T04:14:07.547Z,1006.85
2023-03-22T04:15:07.889Z,1006.83
2023-03-22T04:16:08.268Z,1006.83
2023-03-22T04:17:08.624Z,1006.82
2023-03-22T04:18:08.967Z,1006.80
2023-03-22T04:19:09.331Z,1006.79
2023-03-22T04:20:09.744Z,1006.79
2023-03-22T04:21:10.100Z,1006.74
2023-03-22T04:22:10.472Z,1006.74
2023-03-22T04:23:10.794Z,1006.73
2023-03-22T04:24:11.174Z,1006.80
2023-03-22T04:25:11.515Z,1006.78
2023-03-22T04:26:11.917Z,1006.74
2023-03-22T04:27:12.244Z,1006.71
2023-03-22T04:28:12.648Z,1006.67
2023-03-22T04:29:12.966Z,1006.70
2023-03-22T04:30:13.342Z,1006.64
2023-03-22T04:31:13.718Z,1006.67
2023-03-22T04:32:14.058Z,1006.68
2023-03-22T04:33:14.380Z,1006.66
2023-03-22T04:34:14.788Z,1006.67
2023-03-22T04:35:15.110Z,1006.69
2023-03-22T04:36:15.564Z,1006.65
2023-03-22T04:37:15.835Z,1006.65
2023-03-22T04:38:16.215Z,1006.63
2023-03-22T04:39:16.599Z,1006.68
2023-03-22T04:40:16.932Z,1006.65
2023-03-22T04:41:17.322Z,1006.61
2023-03-22T04:42:17.645Z,1006.71
2023-03-22T04:43:17.983Z,1006.65
2023-03-22T04:44:18.348Z,1006.65
2023-03-22T04:45:18.703Z,1006.70
2023-03-22T04:46:19.090Z,1006.63
2023-03-22T04:47:19.292Z,1006.65
2023-03-22T04:48:19.512Z,1006.66
2023-03-22T04:49:19.814Z,1006.62
2023-03-22T04:50:20.066Z,1006.55
2023-03-22T04:51:20.222Z,1006.55
2023-03-22T04:52:20.506Z,1006.54
2023-03-22T04:53:20.770Z,1006.49
2023-03-22T04:54:21.043Z,1006.45
2023-03-22T04:55:21.242Z,1006.46
2023-03-22T04:56:21.535Z,1006.42
2023-03-22T04:57:21.778Z,1006.47
2023-03-22T04:58:22.056Z,1006.49
2023-03-22T04:59:22.335Z,1006.48
2023-03-22T05:00:22.604Z,1006.50
2023-03-22T05:01:22.981Z,1006.52
2023-03-22T05:02:23.180Z,1006.48
2023-03-22T05:03:23.465Z,1006.47
2023-03-22T05:04:23.619Z,1006.47
2023-03-22T05:05:23.945Z,1006.47
2023-03-22T05:06:24.233Z,1006.42
2023-03-22T05:07:24.491Z,1006.45
2023-03-22T05:08:24.808Z,1006.46
2023-03-22T05:09:24.959Z,1006.48
2023-03-22T05:10:25.262Z,1006.47
2023-03-22T05:11:25.648Z,1006.43
2023-03-22T05:12:25.859Z,1006.43
2023-03-22T05:13:26.134Z,1006.42
2023-03-22T05:14:26.492Z,1006.41
2023-03-22T05:15:26.615Z,1006.42
2023-03-22T05:16:26.898Z,1006.39
2023-03-22T05:17:26.950Z,1006.43
2023-03-22T05:18:27.261Z,1006.47
2023-03-22T05:19:27.419Z,1006.45
2023-03-22T05:20:27.697Z,1006.42
2023-03-22T05:21:27.876Z,1006.44
2023-03-22T05:22:28.166Z,1006.47
2023-03-22T05:23:28.346Z,1006.48
2023-03-22T05:24:28.517Z,1006.46
2023-03-22T05:25:28.688Z,1006.50
2023-03-22T05:26:28.932Z,1006.49
2023-03-22T05:27:29.094Z,1006.52
2023-03-22T05:28:29.247Z,1006.52
2023-03-22T05:29:29.433Z,1006.53
2023-03-22T05:30:29.658Z,1006.57
2023-03-22T05:31:29.968Z,1006.55
2023-03-22T05:32:30.089Z,1006.57
2023-03-22T05:33:30.277Z,1006.56
2023-03-22T05:34:30.541Z,1006.56
2023-03-22T05:35:30.843Z,1006.53
2023-03-22T05:36:31.154Z,1006.49
2023-03-22T05:37:31.415Z,1006.57
2023-03-22T05:38:31.589Z,1006.55
2023-03-22T05:39:31.786Z,1006.58
2023-03-22T05:40:31.985Z,1006.59
2023-03-22T05:41:33.678Z,1006.58
2023-03-22T05:42:32.536Z,1006.57
2023-03-22T05:43:32.858Z,1006.58
2023-03-22T05:44:32.996Z,1006.59
2023-03-22T05:45:33.204Z,1006.57
2023-03-22T05:46:33.390Z,1006.57
2023-03-22T05:47:33.668Z,1006.61
2023-03-22T05:48:33.854Z,1006.61
2023-03-22T05:49:34.139Z,1006.52
2023-03-22T05:50:34.352Z,1006.58
2023-03-22T05:51:34.515Z,1006.53
2023-03-22T05:52:34.696Z,1006.58
2023-03-22T05:53:35.000Z,1006.55
2023-03-22T05:54:35.322Z,1006.50
2023-03-22T05:55:35.612Z,1006.51
2023-03-22T05:56:35.785Z,1006.49
2023-03-22T05:57:35.974Z,1006.45
2023-03-22T05:58:36.248Z,1006.49
2023-03-22T05:59:36.561Z,1006.41
2023-03-22T06:00:36.846Z,1006.45
2023-03-22T06:01:37.052Z,1006.40
2023-03-22T06:02:37.168Z,1006.38
2023-03-22T06:03:37.408Z,1006.42
2023-03-22T06:04:37.538Z,1006.40
2023-03-22T06:05:37.726Z,1006.39
2023-03-22T06:06:37.924Z,1006.37
2023-03-22T06:07:38.072Z,1006.39
2023-03-22T06:08:38.255Z,1006.41
2023-03-22T06:09:38.457Z,1006.41
2023-03-22T06:10:39.141Z,1006.46
2023-03-22T06:11:38.836Z,1006.50
2023-03-22T06:12:39.027Z,1006.48
2023-03-22T06:13:39.219Z,1006.38
2023-03-22T06:14:39.416Z,1006.36
2023-03-22T06:15:39.607Z,1006.31
2023-03-22T06:16:39.942Z,1006.34
2023-03-22T06:17:39.993Z,1006.28
2023-03-22T06:18:40.203Z,1006.30
2023-03-22T06:19:40.388Z,1006.34
2023-03-22T06:20:40.967Z,1006.36
2023-03-22T06:21:40.746Z,1006.36
2023-03-22T06:22:40.932Z,1006.36
2023-03-22T06:23:41.141Z,1006.36
2023-03-22T06:24:41.293Z,1006.33
2023-03-22T06:25:41.498Z,1006.28
2023-03-22T06:26:41.721Z,1006.28
2023-03-22T06:27:41.874Z,1006.32
2023-03-22T06:28:42.162Z,1006.28
2023-03-22T06:29:42.294Z,1006.28
2023-03-22T06:30:43.475Z,1006.25
2023-03-22T06:31:42.646Z,1006.27
2023-03-22T06:32:42.822Z,1006.23
2023-03-22T06:33:43.034Z,1006.30
2023-03-22T06:34:43.209Z,1006.28
2023-03-22T06:35:43.520Z,1006.32
2023-03-22T06:36:43.588Z,1006.33
2023-03-22T06:37:43.761Z,1006.28
2023-03-22T06:38:43.964Z,1006.28
2023-03-22T06:39:44.144Z,1006.24
2023-03-22T06:40:44.449Z,1006.25
2023-03-22T06:41:44.533Z,1006.29
2023-03-22T06:42:44.715Z,1006.26
2023-03-22T06:43:44.900Z,1006.30
2023-03-22T06:44:45.123Z,1006.29
2023-03-22T06:45:45.302Z,1006.29
2023-03-22T06:46:45.540Z,1006.28
2023-03-22T06:47:45.700Z,1006.22
2023-03-22T06:48:45.872Z,1006.26
2023-03-22T06:49:46.037Z,1006.28
2023-03-22T06:50:46.640Z,1006.27
2023-03-22T06:51:46.443Z,1006.26
2023-03-22T06:52:46.598Z,1006.22
2023-03-22T06:53:46.776Z,1006.24
2023-03-22T06:54:46.966Z,1006.25
2023-03-22T06:55:47.143Z,1006.21
2023-03-22T06:56:47.362Z,1006.22
2023-03-22T06:57:47.527Z,1006.15
2023-03-22T06:58:47.719Z,1006.18
2023-03-22T06:59:47.968Z,1006.16
2023-03-22T07:00:48.072Z,1006.23
2023-03-22T07:01:48.333Z,1006.21
2023-03-22T07:02:49.952Z,1006.20
2023-03-22T07:03:48.626Z,1006.20
2023-03-22T07:04:48.860Z,1006.19
2023-03-22T07:05:49.006Z,1006.15
2023-03-22T07:06:49.229Z,1006.16
2023-03-22T07:07:49.382Z,1006.16
2023-03-22T07:08:50.872Z,1006.14
2023-03-22T07:09:49.758Z,1006.13
2023-03-22T07:10:49.953Z,1006.14
2023-03-22T07:11:50.118Z,1006.14
2023-03-22T07:12:50.270Z,1006.10
2023-03-22T07:13:50.499Z,1006.09
2023-03-22T07:14:50.677Z,1006.11
2023-03-22T07:15:50.913Z,1006.08
2023-03-22T07:16:51.039Z,1006.07
2023-03-22T07:17:51.227Z,1006.03
2023-03-22T07:18:51.411Z,1006.00
2023-03-22T07:19:51.635Z,1006.01
2023-03-22T07:20:51.773Z,1006.02
2023-03-22T07:21:51.984Z,1005.97
2023-03-22T07:22:52.157Z,1006.02
2023-03-22T07:23:52.344Z,1006.02
2023-03-22T07:24:57.722Z,1006.02
2023-03-22T07:25:52.706Z,1006.01
2023-03-22T07:26:52.912Z,1005.97
2023-03-22T07:27:53.129Z,1006.01
2023-03-22T07:28:53.278Z,1006.01
2023-03-22T07:29:53.499Z,1005.99
2023-03-22T07:30:53.659Z,1006.01
2023-03-22T07:31:53.893Z,1006.00
2023-03-22T07:32:54.012Z,1005.97
2023-03-22T07:33:54.199Z,1005.90
2023-03-22T07:34:54.404Z,1005.92
2023-03-22T07:35:54.615Z,1005.92
2023-03-22T07:36:54.797Z,1005.87
2023-03-22T07:37:54.951Z,1005.90
2023-03-22T07:38:55.133Z,1005.86
2023-03-22T07:39:55.315Z,1005.87
2023-03-22T07:40:55.509Z,1005.86
2023-03-22T07:41:55.697Z,1005.82
2023-03-22T07:42:56.132Z,1005.80
2023-03-22T07:44:04.937Z,1005.79
2023-03-22T07:44:56.269Z,1005.83
2023-03-22T07:45:56.445Z,1005.78
2023-03-22T07:46:56.708Z,1005.78
2023-03-22T07:47:56.863Z,1005.68
2023-03-22T07:48:56.975Z,1005.72
2023-03-22T07:49:57.183Z,1005.65
2023-03-22T07:50:57.396Z,1005.65
2023-03-22T07:51:57.605Z,1005.61
2023-03-22T07:52:57.778Z,1005.65
2023-03-22T07:53:57.961Z,1005.61
2023-03-22T07:54:58.191Z,1005.51
2023-03-22T07:55:58.416Z,1005.52
2023-03-22T07:56:58.541Z,1005.43
2023-03-22T07:57:58.709Z,1005.40
2023-03-22T07:58:58.949Z,1005.41
2023-03-22T07:59:59.072Z,1005.38
2023-03-22T08:00:59.273Z,1005.40
2023-03-22T08:01:59.557Z,1005.38
2023-03-22T08:02:59.768Z,1005.29
2023-03-22T08:03:59.831Z,1005.20
2023-03-22T08:05:00.024Z,1005.26
2023-03-22T08:06:00.237Z,1005.17
2023-03-22T08:07:00.455Z,1005.19
2023-03-22T08:08:00.568Z,1005.18
2023-03-22T08:09:00.739Z,1005.17
2023-03-22T08:10:00.931Z,1005.14
2023-03-22T08:11:01.135Z,1005.11
2023-03-22T08:12:01.302Z,1005.07
2023-03-22T08:13:01.482Z,1005.09
2023-03-22T08:14:01.672Z,1005.15
2023-03-22T08:15:01.869Z,1005.20
2023-03-22T08:16:02.141Z,1005.12
2023-03-22T08:17:02.281Z,1005.07
2023-03-22T08:18:02.446Z,1005.14
2023-03-22T08:19:02.583Z,1005.06
2023-03-22T08:20:02.770Z,1004.92
2023-03-22T08:21:02.956Z,1005.10
2023-03-22T08:22:03.156Z,1005.08
2023-03-22T08:23:03.326Z,1004.96
2023-03-22T08:24:03.539Z,1005.04
2023-03-22T08:25:03.677Z,1005.02
2023-03-22T08:26:03.877Z,1004.99
2023-03-22T08:27:04.084Z,1004.97
2023-03-22T08:28:04.284Z,1004.99
2023-03-22T08:29:04.438Z,1004.98
2023-03-22T08:30:04.620Z,1004.94
2023-03-22T08:31:04.804Z,1005.01
2023-03-22T08:32:05.114Z,1005.02
2023-03-22T08:33:05.161Z,1004.96
2023-03-22T08:34:05.366Z,1004.96
2023-03-22T08:35:05.554Z,1004.95
2023-03-22T08:36:05.747Z,1005.00
2023-03-22T08:37:05.974Z,1004.98
2023-03-22T08:38:06.129Z,1004.95
2023-03-22T08:39:06.327Z,1004.90
2023-03-22T08:40:06.598Z,1004.87
2023-03-22T08:41:06.727Z,1004.88
2023-03-22T08:42:06.920Z,1004.85
2023-03-22T08:43:07.141Z,1004.96
2023-03-22T08:44:07.292Z,1004.82
2023-03-22T08:45:07.489Z,1004.84
2023-03-22T08:46:07.718Z,1004.83
2023-03-22T08:47:07.873Z,1004.96
2023-03-22T08:48:08.155Z,1004.82
2023-03-22T08:49:08.283Z,1004.84
2023-03-22T08:50:08.467Z,1004.86
2023-03-22T08:51:08.677Z,1004.81
2023-03-22T08:52:08.882Z,1004.72
2023-03-22T08:53:09.009Z,1004.82
2023-03-22T08:54:09.194Z,1004.76
2023-03-22T08:55:09.389Z,1004.72
2023-03-22T08:56:09.573Z,1004.79
2023-03-22T08:57:09.776Z,1004.86
2023-03-22T08:58:09.998Z,1004.71
2023-03-22T08:59:10.177Z,1004.71
2023-03-22T09:00:10.371Z,1004.80
2023-03-22T09:01:10.613Z,1004.61
2023-03-22T09:02:10.978Z,1004.68
2023-03-22T09:03:10.909Z,1004.69
2023-03-22T09:04:11.145Z,1004.64
2023-03-22T09:05:11.304Z,1004.63
2023-03-22T09:06:11.517Z,1004.70
2023-03-22T09:07:11.717Z,1004.67
2023-03-22T09:08:18.520Z,1004.63
2023-03-22T09:09:12.077Z,1004.81
2023-03-22T09:10:12.279Z,1004.63
2023-03-22T09:11:12.470Z,1004.61
2023-03-22T09:12:12.658Z,1004.65
2023-03-22T09:13:12.836Z,1004.62
2023-03-22T09:14:13.047Z,1004.56
2023-03-22T09:15:13.235Z,1004.55
2023-03-22T09:16:13.522Z,1004.55
2023-03-22T09:17:13.658Z,1004.51
2023-03-22T09:18:13.840Z,1004.68
2023-03-22T09:19:13.993Z,1004.60
2023-03-22T09:20:14.217Z,1004.52
2023-03-22T09:21:14.358Z,1004.49
2023-03-22T09:22:14.568Z,1004.50
2023-03-22T09:23:14.717Z,1004.59
2023-03-22T09:24:14.914Z,1004.64
2023-03-22T09:25:15.097Z,1004.59
2023-03-22T09:26:15.279Z,1004.52
2023-03-22T09:27:15.514Z,1004.49
2023-03-22T09:28:15.751Z,1004.62
2023-03-22T09:29:15.915Z,1004.55
2023-03-22T09:30:16.074Z,1004.45
2023-03-22T09:31:18.023Z,1004.48
2023-03-22T09:32:16.494Z,1004.43
2023-03-22T09:33:16.686Z,1004.42
2023-03-22T09:34:16.890Z,1004.55
2023-03-22T09:35:17.069Z,1004.44
2023-03-22T09:36:17.256Z,1004.43
2023-03-22T09:37:17.446Z,1004.38
2023-03-22T09:38:17.646Z,1004.48
2023-03-22T09:39:17.862Z,1004.47
2023-03-22T09:40:18.075Z,1004.46
2023-03-22T09:41:18.233Z,1004.53
2023-03-22T09:42:18.432Z,1004.53
2023-03-22T09:43:18.614Z,1004.44
2023-03-22T09:44:18.798Z,1004.45
2023-03-22T09:45:19.027Z,1004.45
2023-03-22T09:46:19.244Z,1004.36
2023-03-22T09:47:19.392Z,1004.32
2023-03-22T09:48:19.671Z,1004.41
2023-03-22T09:49:19.787Z,1004.37
2023-03-22T09:50:19.966Z,1004.37
2023-03-22T09:51:20.144Z,1004.42
2023-03-22T09:52:20.450Z,1004.41
2023-03-22T09:53:20.514Z,1004.34
2023-03-22T09:54:20.688Z,1004.41
2023-03-22T09:55:20.885Z,1004.23
2023-03-22T09:56:21.075Z,1004.27
2023-03-22T09:57:21.277Z,1004.29
2023-03-22T09:58:21.516Z,1004.19
2023-03-22T09:59:21.665Z,1004.24
2023-03-22T10:00:22.042Z,1004.35
2023-03-22T10:01:22.349Z,1004.23
2023-03-22T10:02:22.296Z,1004.23
2023-03-22T10:03:22.444Z,1004.18
2023-03-22T10:04:22.648Z,1004.20
2023-03-22T10:05:22.808Z,1004.31
2023-03-22T10:06:23.003Z,1004.39
2023-03-22T10:07:23.206Z,1004.31
2023-03-22T10:08:23.354Z,1004.26
2023-03-22T10:09:23.519Z,1004.16
2023-03-22T10:10:23.695Z,1004.07
2023-03-22T10:11:23.889Z,1004.13
2023-03-22T10:12:24.101Z,1004.22
2023-03-22T10:13:24.239Z,1004.21
2023-03-22T10:14:24.450Z,1004.27
2023-03-22T10:15:24.614Z,1004.40
2023-03-22T10:16:24.909Z,1004.48
2023-03-22T10:17:25.052Z,1004.30
2023-03-22T10:18:25.206Z,1004.35
2023-03-22T10:19:25.392Z,1004.32
2023-03-22T10:20:25.584Z,1004.42
2023-03-22T10:21:25.764Z,1004.41
2023-03-22T10:22:25.983Z,1004.25
2023-03-22T10:23:26.136Z,1004.19
2023-03-22T10:24:26.308Z,1004.39
2023-03-22T10:25:26.536Z,1004.34
2023-03-22T10:26:26.711Z,1004.35
2023-03-22T10:27:26.899Z,1004.19
2023-03-22T10:28:27.082Z,1004.23
2023-03-22T10:29:27.269Z,1004.26
2023-03-22T10:30:27.444Z,1004.24
2023-03-22T10:31:27.695Z,1004.25
2023-03-22T10:32:27.879Z,1004.22
2023-03-22T10:33:28.059Z,1004.25
2023-03-22T10:34:28.234Z,1004.21
2023-03-22T10:35:28.572Z,1004.29
2023-03-22T10:36:28.633Z,1004.28
2023-03-22T10:37:28.850Z,1004.31
2023-03-22T10:38:29.018Z,1004.26
2023-03-22T10:39:29.230Z,1004.28
2023-03-22T10:40:29.438Z,1004.34
2023-03-22T10:41:29.669Z,1004.39
2023-03-22T10:42:29.887Z,1004.25
2023-03-22T10:43:30.022Z,1004.30
2023-03-22T10:44:30.233Z,1004.32
2023-03-22T10:45:30.448Z,1004.29
2023-03-22T10:46:30.658Z,1004.28
2023-03-22T10:47:30.832Z,1004.19
2023-03-22T10:48:31.049Z,1004.24
2023-03-22T10:49:31.213Z,1004.21
2023-03-22T10:50:31.409Z,1004.14
2023-03-22T10:51:31.615Z,1004.26
2023-03-22T10:52:31.802Z,1004.22
2023-03-22T10:53:32.065Z,1004.29
2023-03-22T10:54:32.255Z,1004.32
2023-03-22T10:55:32.357Z,1004.23
2023-03-22T10:56:32.581Z,1004.23
2023-03-22T10:57:32.742Z,1004.38
2023-03-22T10:58:32.908Z,1004.19
2023-03-22T10:59:33.130Z,1004.11
2023-03-22T11:00:33.424Z,1004.17
2023-03-22T11:01:33.700Z,1004.27
2023-03-22T11:02:33.841Z,1004.24
2023-03-22T11:03:33.936Z,1004.26
2023-03-22T11:04:34.149Z,1004.23
2023-03-22T11:05:34.304Z,1004.24
2023-03-22T11:06:34.526Z,1004.16
2023-03-22T11:07:34.736Z,1004.21
2023-03-22T11:08:34.899Z,1004.16
2023-03-22T11:09:35.121Z,1004.16
2023-03-22T11:10:35.433Z,1004.15
2023-03-22T11:11:35.520Z,1004.39
2023-03-22T11:12:35.672Z,1004.35
2023-03-22T11:13:35.878Z,1004.28
2023-03-22T11:14:36.031Z,1004.32
2023-03-22T11:15:36.226Z,1004.37
2023-03-22T11:16:36.509Z,1004.40
2023-03-22T11:17:36.628Z,1004.42
2023-03-22T11:18:36.869Z,1004.39
2023-03-22T11:19:37.024Z,1004.38
2023-03-22T11:20:37.333Z,1004.39
2023-03-22T11:21:37.401Z,1004.30
2023-03-22T11:22:37.599Z,1004.31
2023-03-22T11:23:37.761Z,1004.34
2023-03-22T11:24:37.950Z,1004.45
2023-03-22T11:25:38.178Z,1004.33
2023-03-22T11:26:40.870Z,1004.46
2023-03-22T11:27:38.532Z,1004.45
2023-03-22T11:28:38.728Z,1004.43
2023-03-22T11:29:38.892Z,1004.44
2023-03-22T11:30:39.721Z,1004.51
2023-03-22T11:31:39.288Z,1004.43
2023-03-22T11:32:39.641Z,1004.45
2023-03-22T11:33:39.654Z,1004.43
2023-03-22T11:34:39.849Z,1004.50
2023-03-22T11:35:40.121Z,1004.37
2023-03-22T11:36:40.245Z,1004.48
2023-03-22T11:37:40.456Z,1004.47
2023-03-22T11:38:40.643Z,1004.41
2023-03-22T11:39:40.792Z,1004.44
2023-03-22T11:40:41.058Z,1004.39
2023-03-22T11:41:41.167Z,1004.43
2023-03-22T11:42:41.384Z,1004.44
2023-03-22T11:43:41.548Z,1004.53
2023-03-22T11:44:41.763Z,1004.36
2023-03-22T11:45:42.030Z,1004.36
2023-03-22T11:46:42.155Z,1004.31
2023-03-22T11:47:42.482Z,1004.29
2023-03-22T11:48:42.658Z,1004.33
2023-03-22T11:49:42.696Z,1004.33
2023-03-22T11:50:43.249Z,1004.33
2023-03-22T11:51:43.043Z,1004.28
2023-03-22T11:52:43.259Z,1004.24
2023-03-22T11:53:43.448Z,1004.38
2023-03-22T11:54:43.597Z,1004.19
2023-03-22T11:55:43.817Z,1004.20
2023-03-22T11:56:43.969Z,1004.21
2023-03-22T11:57:44.267Z,1004.19
2023-03-22T11:58:44.359Z,1004.11
2023-03-22T11:59:44.548Z,1004.11
2023-03-22T12:00:44.741Z,1004.06
2023-03-22T12:01:44.975Z,1004.18
2023-03-22T12:02:45.244Z,1004.17
2023-03-22T12:03:45.512Z,1004.02
2023-03-22T12:04:45.547Z,1004.17
2023-03-22T12:05:45.816Z,1004.16
2023-03-22T12:06:45.930Z,1004.15
2023-03-22T12:07:46.148Z,1004.14
2023-03-22T12:08:46.296Z,1004.06